sensor_id;sensor_type;location;lat;lon;timestamp;pressure;altitude;pressure_sealevel;temperature
69857;BMP280;57147;53.582;10.112;2023-07-02T00:00:38;99739.84;;;15.50
69857;BMP280;57147;53.582;10.112;2023-07-02T00:05:39;99709.16;;;15.44
69857;BMP280;57147;53.582;10.112;2023-07-02T00:10:43;99773.69;;;15.43
69857;BMP280;57147;53.582;10.112;2023-07-02T00:15:43;99706.47;;;15.44
69857;BMP280;57147;53.582;10.112;2023-07-02T00:20:44;99777.41;;;15.38
69857;BMP280;57147;53.582;10.112;2023-07-02T00:25:47;99695.47;;;15.30
69857;BMP280;57147;53.582;10.112;2023-07-02T00:30:48;99671.03;;;15.31
69857;BMP280;57147;53.582;10.112;2023-07-02T00:35:48;99685.44;;;15.27
69857;BMP280;57147;53.582;10.112;2023-07-02T00:40:51;99709.59;;;15.30
69857;BMP280;57147;53.582;10.112;2023-07-02T00:45:52;99651.97;;;15.33
69857;BMP280;57147;53.582;10.112;2023-07-02T00:50:53;99759.66;;;15.30
69857;BMP280;57147;53.582;10.112;2023-07-02T00:55:56;99807.69;;;15.26
69857;BMP280;57147;53.582;10.112;2023-07-02T01:00:57;99568.53;;;15.24
69857;BMP280;57147;53.582;10.112;2023-07-02T01:05:57;99833.91;;;15.37
69857;BMP280;57147;53.582;10.112;2023-07-02T01:11:00;99698.69;;;15.20
69857;BMP280;57147;53.582;10.112;2023-07-02T01:16:01;99673.53;;;15.40
69857;BMP280;57147;53.582;10.112;2023-07-02T01:21:05;99522.78;;;14.40
69857;BMP280;57147;53.582;10.112;2023-07-02T01:26:06;99788.66;;;15.63
69857;BMP280;57147;53.582;10.112;2023-07-02T01:31:06;99764.78;;;15.54
69857;BMP280;57147;53.582;10.112;2023-07-02T01:36:09;99785.22;;;15.47
69857;BMP280;57147;53.582;10.112;2023-07-02T01:41:10;99712.50;;;15.41
69857;BMP280;57147;53.582;10.112;2023-07-02T01:46:11;99804.59;;;15.40
69857;BMP280;57147;53.582;10.112;2023-07-02T01:51:15;99730.75;;;15.36
69857;BMP280;57147;53.582;10.112;2023-07-02T01:56:15;99762.91;;;15.39
69857;BMP280;57147;53.582;10.112;2023-07-02T02:01:16;99732.03;;;15.26
69857;BMP280;57147;53.582;10.112;2023-07-02T02:06:19;99746.84;;;15.39
69857;BMP280;57147;53.582;10.112;2023-07-02T02:11:20;99732.72;;;15.39
69857;BMP280;57147;53.582;10.112;2023-07-02T02:16:21;99724.00;;;15.26
69857;BMP280;57147;53.582;10.112;2023-07-02T02:21:24;99791.16;;;15.21
69857;BMP280;57147;53.582;10.112;2023-07-02T02:26:24;99781.78;;;15.30
69857;BMP280;57147;53.582;10.112;2023-07-02T02:31:25;99813.66;;;15.20
69857;BMP280;57147;53.582;10.112;2023-07-02T02:36:28;99795.00;;;15.39
69857;BMP280;57147;53.582;10.112;2023-07-02T02:41:29;99841.16;;;15.20
69857;BMP280;57147;53.582;10.112;2023-07-02T02:46:30;99859.97;;;15.24
69857;BMP280;57147;53.582;10.112;2023-07-02T02:51:33;99854.00;;;15.15
69857;BMP280;57147;53.582;10.112;2023-07-02T02:56:34;99865.81;;;14.98
69857;BMP280;57147;53.582;10.112;2023-07-02T03:01:35;99831.84;;;14.99
69857;BMP280;57147;53.582;10.112;2023-07-02T03:06:39;99925.41;;;14.99
69857;BMP280;57147;53.582;10.112;2023-07-02T03:11:39;99888.75;;;14.99
69857;BMP280;57147;53.582;10.112;2023-07-02T03:16:40;99812.38;;;14.98
69857;BMP280;57147;53.582;10.112;2023-07-02T03:21:44;99858.13;;;14.97
69857;BMP280;57147;53.582;10.112;2023-07-02T03:26:45;99856.53;;;15.08
69857;BMP280;57147;53.582;10.112;2023-07-02T03:31:45;99875.75;;;14.98
69857;BMP280;57147;53.582;10.112;2023-07-02T03:36:48;99937.53;;;14.96
69857;BMP280;57147;53.582;10.112;2023-07-02T03:41:49;99901.69;;;14.97
69857;BMP280;57147;53.582;10.112;2023-07-02T03:46:50;99856.22;;;14.81
69857;BMP280;57147;53.582;10.112;2023-07-02T03:51:53;99906.03;;;14.89
69857;BMP280;57147;53.582;10.112;2023-07-02T03:56:53;99936.19;;;15.02
69857;BMP280;57147;53.582;10.112;2023-07-02T04:01:54;100007.50;;;14.86
69857;BMP280;57147;53.582;10.112;2023-07-02T04:06:57;99976.09;;;14.83
69857;BMP280;57147;53.582;10.112;2023-07-02T04:11:58;99979.97;;;14.98
69857;BMP280;57147;53.582;10.112;2023-07-02T04:16:58;99978.84;;;14.59
69857;BMP280;57147;53.582;10.112;2023-07-02T04:22:01;99968.22;;;14.74
69857;BMP280;57147;53.582;10.112;2023-07-02T04:27:02;100063.25;;;15.00
69857;BMP280;57147;53.582;10.112;2023-07-02T04:32:03;100030.28;;;15.08
69857;BMP280;57147;53.582;10.112;2023-07-02T04:37:09;100137.00;;;15.01
69857;BMP280;57147;53.582;10.112;2023-07-02T04:42:10;100089.97;;;15.12
69857;BMP280;57147;53.582;10.112;2023-07-02T04:47:10;100154.16;;;15.12
69857;BMP280;57147;53.582;10.112;2023-07-02T04:52:13;100186.00;;;15.05
69857;BMP280;57147;53.582;10.112;2023-07-02T04:57:14;100128.97;;;15.13
69857;BMP280;57147;53.582;10.112;2023-07-02T05:02:15;100188.44;;;15.10
69857;BMP280;57147;53.582;10.112;2023-07-02T05:07:18;100179.53;;;15.18
69857;BMP280;57147;53.582;10.112;2023-07-02T05:12:18;100161.94;;;15.17
69857;BMP280;57147;53.582;10.112;2023-07-02T05:17:19;100136.78;;;14.69
69857;BMP280;57147;53.582;10.112;2023-07-02T05:22:22;100195.59;;;15.18
69857;BMP280;57147;53.582;10.112;2023-07-02T05:27:23;100212.97;;;15.12
69857;BMP280;57147;53.582;10.112;2023-07-02T05:32:23;100179.31;;;15.23
69857;BMP280;57147;53.582;10.112;2023-07-02T05:37:27;100216.28;;;15.21
69857;BMP280;57147;53.582;10.112;2023-07-02T05:42:27;100224.53;;;15.28
69857;BMP280;57147;53.582;10.112;2023-07-02T05:47:28;100228.63;;;15.25
69857;BMP280;57147;53.582;10.112;2023-07-02T05:52:31;100244.13;;;15.32
69857;BMP280;57147;53.582;10.112;2023-07-02T05:57:32;100223.59;;;15.36
69857;BMP280;57147;53.582;10.112;2023-07-02T06:02:32;100217.38;;;15.32
69857;BMP280;57147;53.582;10.112;2023-07-02T06:07:36;100226.28;;;15.48
69857;BMP280;57147;53.582;10.112;2023-07-02T06:12:36;100202.44;;;15.43
69857;BMP280;57147;53.582;10.112;2023-07-02T06:17:37;100187.72;;;15.37
69857;BMP280;57147;53.582;10.112;2023-07-02T06:22:40;100224.25;;;15.57
69857;BMP280;57147;53.582;10.112;2023-07-02T06:27:40;100194.38;;;15.55
69857;BMP280;57147;53.582;10.112;2023-07-02T06:32:41;100181.00;;;15.55
69857;BMP280;57147;53.582;10.112;2023-07-02T06:37:45;100203.03;;;15.77
69857;BMP280;57147;53.582;10.112;2023-07-02T06:42:46;100232.66;;;15.84
69857;BMP280;57147;53.582;10.112;2023-07-02T06:47:46;100226.41;;;15.92
69857;BMP280;57147;53.582;10.112;2023-07-02T06:52:50;100232.28;;;15.97
69857;BMP280;57147;53.582;10.112;2023-07-02T06:57:50;100233.25;;;16.05
69857;BMP280;57147;53.582;10.112;2023-07-02T07:02:51;100227.31;;;16.27
69857;BMP280;57147;53.582;10.112;2023-07-02T07:07:54;100269.53;;;16.46
69857;BMP280;57147;53.582;10.112;2023-07-02T07:12:54;100225.28;;;16.52
69857;BMP280;57147;53.582;10.112;2023-07-02T07:17:55;100222.44;;;16.60
69857;BMP280;57147;53.582;10.112;2023-07-02T07:22:58;100231.09;;;16.70
69857;BMP280;57147;53.582;10.112;2023-07-02T07:27:59;100222.94;;;16.66
69857;BMP280;57147;53.582;10.112;2023-07-02T07:33:00;100197.53;;;16.44
69857;BMP280;57147;53.582;10.112;2023-07-02T07:38:03;100216.22;;;16.41
69857;BMP280;57147;53.582;10.112;2023-07-02T07:43:04;100217.03;;;16.29
69857;BMP280;57147;53.582;10.112;2023-07-02T07:48:05;100213.00;;;16.51
69857;BMP280;57147;53.582;10.112;2023-07-02T07:53:08;100221.16;;;16.70
69857;BMP280;57147;53.582;10.112;2023-07-02T07:58:09;100192.78;;;16.53
69857;BMP280;57147;53.582;10.112;2023-07-02T08:03:10;100228.31;;;16.50
69857;BMP280;57147;53.582;10.112;2023-07-02T08:08:13;100239.72;;;16.47
69857;BMP280;57147;53.582;10.112;2023-07-02T08:13:13;100229.44;;;16.49
69857;BMP280;57147;53.582;10.112;2023-07-02T08:18:14;100172.72;;;16.16
69857;BMP280;57147;53.582;10.112;2023-07-02T08:23:17;100247.34;;;16.77
69857;BMP280;57147;53.582;10.112;2023-07-02T08:28:18;100254.22;;;17.09
69857;BMP280;57147;53.582;10.112;2023-07-02T08:33:21;100251.25;;;17.14
69857;BMP280;57147;53.582;10.112;2023-07-02T08:38:24;100288.81;;;17.30
69857;BMP280;57147;53.582;10.112;2023-07-02T08:43:26;100285.34;;;17.29
69857;BMP280;57147;53.582;10.112;2023-07-02T08:48:27;100286.78;;;17.42
69857;BMP280;57147;53.582;10.112;2023-07-02T08:53:30;100323.16;;;17.40
69857;BMP280;57147;53.582;10.112;2023-07-02T08:58:31;100305.56;;;17.42
69857;BMP280;57147;53.582;10.112;2023-07-02T09:03:31;100288.38;;;17.63
69857;BMP280;57147;53.582;10.112;2023-07-02T09:08:35;100311.13;;;17.69
69857;BMP280;57147;53.582;10.112;2023-07-02T09:13:42;100325.97;;;18.01
69857;BMP280;57147;53.582;10.112;2023-07-02T09:18:43;100312.97;;;18.03
69857;BMP280;57147;53.582;10.112;2023-07-02T09:23:46;100285.16;;;17.38
69857;BMP280;57147;53.582;10.112;2023-07-02T09:28:46;100302.22;;;17.14
69857;BMP280;57147;53.582;10.112;2023-07-02T09:33:49;100304.16;;;16.82
69857;BMP280;57147;53.582;10.112;2023-07-02T09:38:53;100258.13;;;15.65
69857;BMP280;57147;53.582;10.112;2023-07-02T09:43:53;100147.25;;;14.86
69857;BMP280;57147;53.582;10.112;2023-07-02T09:48:55;100197.59;;;14.84
69857;BMP280;57147;53.582;10.112;2023-07-02T09:53:58;100243.91;;;15.49
69857;BMP280;57147;53.582;10.112;2023-07-02T09:58:59;100296.53;;;15.97
69857;BMP280;57147;53.582;10.112;2023-07-02T10:04:10;100322.94;;;16.11
69857;BMP280;57147;53.582;10.112;2023-07-02T10:09:13;100336.38;;;16.54
69857;BMP280;57147;53.582;10.112;2023-07-02T10:14:14;100365.34;;;16.92
69857;BMP280;57147;53.582;10.112;2023-07-02T10:19:14;100359.97;;;17.08
69857;BMP280;57147;53.582;10.112;2023-07-02T10:24:18;100370.75;;;17.43
69857;BMP280;57147;53.582;10.112;2023-07-02T10:29:19;100359.91;;;17.71
69857;BMP280;57147;53.582;10.112;2023-07-02T10:34:30;100352.69;;;17.94
69857;BMP280;57147;53.582;10.112;2023-07-02T10:39:38;100363.59;;;17.82
69857;BMP280;57147;53.582;10.112;2023-07-02T10:44:47;100363.97;;;17.65
69857;BMP280;57147;53.582;10.112;2023-07-02T10:49:48;100360.97;;;17.50
69857;BMP280;57147;53.582;10.112;2023-07-02T10:54:51;100373.78;;;17.41
69857;BMP280;57147;53.582;10.112;2023-07-02T10:59:52;100373.44;;;17.27
69857;BMP280;57147;53.582;10.112;2023-07-02T11:04:52;100378.19;;;17.18
69857;BMP280;57147;53.582;10.112;2023-07-02T11:09:55;100392.03;;;17.04
69857;BMP280;57147;53.582;10.112;2023-07-02T11:15:07;100381.59;;;17.15
69857;BMP280;57147;53.582;10.112;2023-07-02T11:20:08;100379.06;;;17.38
69857;BMP280;57147;53.582;10.112;2023-07-02T11:25:16;100393.25;;;17.89
69857;BMP280;57147;53.582;10.112;2023-07-02T11:30:17;100409.09;;;17.94
69857;BMP280;57147;53.582;10.112;2023-07-02T11:35:18;100408.44;;;18.16
69857;BMP280;57147;53.582;10.112;2023-07-02T11:40:21;100412.69;;;18.36
69857;BMP280;57147;53.582;10.112;2023-07-02T11:45:21;100421.47;;;18.53
69857;BMP280;57147;53.582;10.112;2023-07-02T11:50:22;100418.25;;;18.89
69857;BMP280;57147;53.582;10.112;2023-07-02T11:55:25;100422.91;;;18.92
69857;BMP280;57147;53.582;10.112;2023-07-02T12:00:26;100422.16;;;18.91
69857;BMP280;57147;53.582;10.112;2023-07-02T12:05:26;100422.13;;;18.69
69857;BMP280;57147;53.582;10.112;2023-07-02T12:10:30;100441.53;;;18.59
69857;BMP280;57147;53.582;10.112;2023-07-02T12:15:30;100476.00;;;18.18
69857;BMP280;57147;53.582;10.112;2023-07-02T12:20:31;100445.47;;;18.07
69857;BMP280;57147;53.582;10.112;2023-07-02T12:25:34;100423.84;;;18.19
69857;BMP280;57147;53.582;10.112;2023-07-02T12:30:35;100433.63;;;18.46
69857;BMP280;57147;53.582;10.112;2023-07-02T12:35:35;100443.84;;;19.02
69857;BMP280;57147;53.582;10.112;2023-07-02T12:40:38;100437.75;;;19.05
69857;BMP280;57147;53.582;10.112;2023-07-02T12:45:39;100444.88;;;18.75
69857;BMP280;57147;53.582;10.112;2023-07-02T12:50:40;100449.97;;;18.99
69857;BMP280;57147;53.582;10.112;2023-07-02T12:55:43;100453.25;;;19.61
69857;BMP280;57147;53.582;10.112;2023-07-02T13:00:43;100478.69;;;20.16
69857;BMP280;57147;53.582;10.112;2023-07-02T13:05:44;100479.34;;;20.09
69857;BMP280;57147;53.582;10.112;2023-07-02T13:10:47;100497.97;;;19.65
69857;BMP280;57147;53.582;10.112;2023-07-02T13:15:48;100530.69;;;19.41
69857;BMP280;57147;53.582;10.112;2023-07-02T13:20:48;100513.13;;;19.51
69857;BMP280;57147;53.582;10.112;2023-07-02T13:25:52;100504.53;;;19.68
69857;BMP280;57147;53.582;10.112;2023-07-02T13:30:52;100498.63;;;20.11
69857;BMP280;57147;53.582;10.112;2023-07-02T13:35:53;100525.78;;;19.73
69857;BMP280;57147;53.582;10.112;2023-07-02T13:40:56;100503.41;;;19.69
69857;BMP280;57147;53.582;10.112;2023-07-02T13:45:56;100496.81;;;19.93
69857;BMP280;57147;53.582;10.112;2023-07-02T13:50:57;100510.06;;;20.31
69857;BMP280;57147;53.582;10.112;2023-07-02T13:56:00;100464.66;;;20.03
69857;BMP280;57147;53.582;10.112;2023-07-02T14:01:03;100513.84;;;20.60
69857;BMP280;57147;53.582;10.112;2023-07-02T14:06:04;100503.97;;;20.71
69857;BMP280;57147;53.582;10.112;2023-07-02T14:11:04;100520.38;;;20.25
69857;BMP280;57147;53.582;10.112;2023-07-02T14:16:08;100534.38;;;20.08
69857;BMP280;57147;53.582;10.112;2023-07-02T14:21:08;100523.66;;;20.42
69857;BMP280;57147;53.582;10.112;2023-07-02T14:26:09;100529.09;;;19.89
69857;BMP280;57147;53.582;10.112;2023-07-02T14:31:13;100538.13;;;19.74
69857;BMP280;57147;53.582;10.112;2023-07-02T14:36:13;100537.38;;;19.77
69857;BMP280;57147;53.582;10.112;2023-07-02T14:41:14;100531.78;;;19.63
69857;BMP280;57147;53.582;10.112;2023-07-02T14:46:17;100553.06;;;19.94
69857;BMP280;57147;53.582;10.112;2023-07-02T14:51:18;100540.09;;;20.29
69857;BMP280;57147;53.582;10.112;2023-07-02T14:56:18;100550.56;;;20.08
69857;BMP280;57147;53.582;10.112;2023-07-02T15:01:21;100550.81;;;19.51
69857;BMP280;57147;53.582;10.112;2023-07-02T15:06:23;100530.25;;;18.97
69857;BMP280;57147;53.582;10.112;2023-07-02T15:11:24;100567.59;;;19.21
69857;BMP280;57147;53.582;10.112;2023-07-02T15:16:27;100549.81;;;19.59
69857;BMP280;57147;53.582;10.112;2023-07-02T15:21:27;100557.69;;;19.71
69857;BMP280;57147;53.582;10.112;2023-07-02T15:26:28;100547.72;;;19.49
69857;BMP280;57147;53.582;10.112;2023-07-02T15:31:31;100567.69;;;19.25
69857;BMP280;57147;53.582;10.112;2023-07-02T15:36:32;100568.75;;;19.20
69857;BMP280;57147;53.582;10.112;2023-07-02T15:41:33;100568.75;;;19.20
69857;BMP280;57147;53.582;10.112;2023-07-02T15:46:36;100576.22;;;19.76
69857;BMP280;57147;53.582;10.112;2023-07-02T15:51:37;100582.63;;;19.68
69857;BMP280;57147;53.582;10.112;2023-07-02T15:56:37;100552.81;;;19.80
69857;BMP280;57147;53.582;10.112;2023-07-02T16:01:40;100549.78;;;19.81
69857;BMP280;57147;53.582;10.112;2023-07-02T16:06:41;100576.00;;;20.37
69857;BMP280;57147;53.582;10.112;2023-07-02T16:11:42;100570.59;;;20.07
69857;BMP280;57147;53.582;10.112;2023-07-02T16:16:46;100560.84;;;19.99
69857;BMP280;57147;53.582;10.112;2023-07-02T16:21:47;100586.09;;;20.44
69857;BMP280;57147;53.582;10.112;2023-07-02T16:26:48;100576.03;;;19.88
69857;BMP280;57147;53.582;10.112;2023-07-02T16:31:52;100605.88;;;19.76
69857;BMP280;57147;53.582;10.112;2023-07-02T16:36:54;100600.06;;;19.74
69857;BMP280;57147;53.582;10.112;2023-07-02T16:41:54;100581.84;;;19.22
69857;BMP280;57147;53.582;10.112;2023-07-02T16:46:58;100594.41;;;18.95
69857;BMP280;57147;53.582;10.112;2023-07-02T16:51:58;100603.03;;;19.04
69857;BMP280;57147;53.582;10.112;2023-07-02T16:57:00;100618.44;;;18.88
69857;BMP280;57147;53.582;10.112;2023-07-02T17:02:06;100608.44;;;19.04
69857;BMP280;57147;53.582;10.112;2023-07-02T17:07:07;100625.41;;;19.08
69857;BMP280;57147;53.582;10.112;2023-07-02T17:12:09;100634.03;;;18.79
69857;BMP280;57147;53.582;10.112;2023-07-02T17:17:14;100624.22;;;18.52
69857;BMP280;57147;53.582;10.112;2023-07-02T17:22:17;100637.44;;;18.25
69857;BMP280;57147;53.582;10.112;2023-07-02T17:27:20;100647.31;;;18.21
69857;BMP280;57147;53.582;10.112;2023-07-02T17:32:25;100631.53;;;18.35
69857;BMP280;57147;53.582;10.112;2023-07-02T17:37:26;100650.06;;;18.40
69857;BMP280;57147;53.582;10.112;2023-07-02T17:42:26;100652.84;;;18.28
69857;BMP280;57147;53.582;10.112;2023-07-02T17:47:30;100650.50;;;18.27
69857;BMP280;57147;53.582;10.112;2023-07-02T17:52:30;100640.22;;;18.13
69857;BMP280;57147;53.582;10.112;2023-07-02T17:57:31;100648.44;;;18.20
69857;BMP280;57147;53.582;10.112;2023-07-02T18:02:34;100645.13;;;17.80
69857;BMP280;57147;53.582;10.112;2023-07-02T18:07:35;100632.91;;;17.67
69857;BMP280;57147;53.582;10.112;2023-07-02T18:12:35;100646.06;;;17.72
69857;BMP280;57147;53.582;10.112;2023-07-02T18:17:39;100658.38;;;17.73
69857;BMP280;57147;53.582;10.112;2023-07-02T18:22:39;100647.13;;;17.55
69857;BMP280;57147;53.582;10.112;2023-07-02T18:27:40;100608.91;;;17.30
69857;BMP280;57147;53.582;10.112;2023-07-02T18:32:43;100660.22;;;17.57
69857;BMP280;57147;53.582;10.112;2023-07-02T18:37:44;100658.38;;;17.45
69857;BMP280;57147;53.582;10.112;2023-07-02T18:42:46;100641.69;;;17.51
69857;BMP280;57147;53.582;10.112;2023-07-02T18:47:49;100656.91;;;17.47
69857;BMP280;57147;53.582;10.112;2023-07-02T18:52:50;100643.97;;;17.37
69857;BMP280;57147;53.582;10.112;2023-07-02T18:57:50;100650.56;;;17.40
69857;BMP280;57147;53.582;10.112;2023-07-02T19:02:53;100659.16;;;17.45
69857;BMP280;57147;53.582;10.112;2023-07-02T19:07:54;100659.84;;;17.42
69857;BMP280;57147;53.582;10.112;2023-07-02T19:12:55;100662.31;;;17.35
69857;BMP280;57147;53.582;10.112;2023-07-02T19:17:58;100655.19;;;17.27
69857;BMP280;57147;53.582;10.112;2023-07-02T19:22:58;100653.00;;;17.17
69857;BMP280;57147;53.582;10.112;2023-07-02T19:27:59;100653.00;;;17.17
69857;BMP280;57147;53.582;10.112;2023-07-02T19:33:02;100646.53;;;17.06
69857;BMP280;57147;53.582;10.112;2023-07-02T19:38:03;100663.94;;;17.12
69857;BMP280;57147;53.582;10.112;2023-07-02T19:43:03;100650.78;;;17.07
69857;BMP280;57147;53.582;10.112;2023-07-02T19:48:07;100654.34;;;17.11
69857;BMP280;57147;53.582;10.112;2023-07-02T19:53:07;100657.66;;;17.20
69857;BMP280;57147;53.582;10.112;2023-07-02T19:58:08;100665.16;;;17.15
69857;BMP280;57147;53.582;10.112;2023-07-02T20:03:11;100659.69;;;17.11
69857;BMP280;57147;53.582;10.112;2023-07-02T20:08:12;100662.63;;;17.06
69857;BMP280;57147;53.582;10.112;2023-07-02T20:13:13;100661.09;;;16.93
69857;BMP280;57147;53.582;10.112;2023-07-02T20:18:16;100650.91;;;16.98
69857;BMP280;57147;53.582;10.112;2023-07-02T20:23:17;100600.59;;;16.55
69857;BMP280;57147;53.582;10.112;2023-07-02T20:28:17;100656.88;;;16.80
69857;BMP280;57147;53.582;10.112;2023-07-02T20:33:20;100633.66;;;16.59
69857;BMP280;57147;53.582;10.112;2023-07-02T20:38:21;100660.00;;;16.70
69857;BMP280;57147;53.582;10.112;2023-07-02T20:43:22;100659.31;;;16.73
69857;BMP280;57147;53.582;10.112;2023-07-02T20:48:26;100649.94;;;16.67
69857;BMP280;57147;53.582;10.112;2023-07-02T20:53:27;100664.13;;;16.67
69857;BMP280;57147;53.582;10.112;2023-07-02T20:58:28;100648.94;;;16.59
69857;BMP280;57147;53.582;10.112;2023-07-02T21:03:31;100654.41;;;16.62
69857;BMP280;57147;53.582;10.112;2023-07-02T21:08:32;100647.13;;;16.51
69857;BMP280;57147;53.582;10.112;2023-07-02T21:13:33;100635.88;;;16.57
69857;BMP280;57147;53.582;10.112;2023-07-02T21:18:36;100642.25;;;16.41
69857;BMP280;57147;53.582;10.112;2023-07-02T21:23:37;100623.47;;;16.29
69857;BMP280;57147;53.582;10.112;2023-07-02T21:28:37;100627.28;;;16.40
69857;BMP280;57147;53.582;10.112;2023-07-02T21:33:41;100636.28;;;16.23
69857;BMP280;57147;53.582;10.112;2023-07-02T21:38:41;100638.09;;;16.31
69857;BMP280;57147;53.582;10.112;2023-07-02T21:43:44;100626.66;;;16.10
69857;BMP280;57147;53.582;10.112;2023-07-02T21:48:48;100626.56;;;16.18
69857;BMP280;57147;53.582;10.112;2023-07-02T21:53:49;100611.94;;;16.04
69857;BMP280;57147;53.582;10.112;2023-07-02T21:58:50;100624.56;;;16.03
69857;BMP280;57147;53.582;10.112;2023-07-02T22:03:53;100614.06;;;15.98
69857;BMP280;57147;53.582;10.112;2023-07-02T22:08:53;100570.84;;;15.75
69857;BMP280;57147;53.582;10.112;2023-07-02T22:13:54;100624.41;;;16.12
69857;BMP280;57147;53.582;10.112;2023-07-02T22:18:57;100610.59;;;16.10
69857;BMP280;57147;53.582;10.112;2023-07-02T22:23:58;100599.88;;;16.10
69857;BMP280;57147;53.582;10.112;2023-07-02T22:28:58;100591.41;;;16.08
69857;BMP280;57147;53.582;10.112;2023-07-02T22:34:02;100590.16;;;16.17
69857;BMP280;57147;53.582;10.112;2023-07-02T22:39:02;100551.47;;;16.03
69857;BMP280;57147;53.582;10.112;2023-07-02T22:44:04;100580.03;;;16.23
69857;BMP280;57147;53.582;10.112;2023-07-02T22:49:07;100573.78;;;16.19
69857;BMP280;57147;53.582;10.112;2023-07-02T22:54:07;100567.06;;;16.13
69857;BMP280;57147;53.582;10.112;2023-07-02T22:59:08;100572.88;;;16.03
69857;BMP280;57147;53.582;10.112;2023-07-02T23:04:11;100541.19;;;15.81
69857;BMP280;57147;53.582;10.112;2023-07-02T23:09:12;100551.59;;;16.06
69857;BMP280;57147;53.582;10.112;2023-07-02T23:14:13;100555.28;;;16.02
69857;BMP280;57147;53.582;10.112;2023-07-02T23:19:16;100499.63;;;15.62
69857;BMP280;57147;53.582;10.112;2023-07-02T23:24:16;100548.56;;;15.96
69857;BMP280;57147;53.582;10.112;2023-07-02T23:29:17;100541.88;;;15.90
69857;BMP280;57147;53.582;10.112;2023-07-02T23:34:21;100528.38;;;15.86
69857;BMP280;57147;53.582;10.112;2023-07-02T23:39:21;100539.09;;;15.86
69857;BMP280;57147;53.582;10.112;2023-07-02T23:44:22;100517.06;;;15.68
69857;BMP280;57147;53.582;10.112;2023-07-02T23:49:25;100530.00;;;15.79
69857;BMP280;57147;53.582;10.112;2023-07-02T23:54:26;100526.13;;;15.76
69857;BMP280;57147;53.582;10.112;2023-07-02T23:59:26;100520.41;;;15.65
